createdAt,value
2022-12-03T00:00:59.894Z,94.96
2022-12-03T00:03:29.419Z,94.79
2022-12-03T00:05:57.602Z,94.71
2022-12-03T00:08:25.562Z,94.46
2022-12-03T00:10:53.479Z,94.38
2022-12-03T00:13:21.552Z,94.59
2022-12-03T00:15:49.576Z,94.93
2022-12-03T00:18:17.482Z,94.96
2022-12-03T00:20:45.455Z,95.02
2022-12-03T00:23:13.367Z,95.12
2022-12-03T00:25:41.312Z,95.23
2022-12-03T00:28:09.255Z,95.22
2022-12-03T00:30:37.230Z,95.20
2022-12-03T00:33:05.182Z,95.38
2022-12-03T00:35:33.124Z,95.57
2022-12-03T00:38:01.037Z,95.54
2022-12-03T00:40:28.943Z,95.34
2022-12-03T00:42:56.837Z,95.48
2022-12-03T00:45:24.842Z,95.64
2022-12-03T00:47:52.880Z,95.82
2022-12-03T00:50:20.842Z,95.98
2022-12-03T00:52:49.942Z,96.26
2022-12-03T00:55:18.150Z,96.25
2022-12-03T00:57:46.064Z,96.62
2022-12-03T01:00:14.622Z,97.00
2022-12-03T01:02:42.664Z,96.83
2022-12-03T01:05:11.626Z,96.62
2022-12-03T01:07:39.622Z,96.95
2022-12-03T01:10:08.085Z,96.85
2022-12-03T01:12:36.032Z,96.93
2022-12-03T01:15:05.134Z,96.81
2022-12-03T01:17:33.205Z,96.81
2022-12-03T01:20:02.696Z,96.81
2022-12-03T01:22:30.690Z,96.95
2022-12-03T01:24:58.626Z,96.89
2022-12-03T01:27:26.591Z,97.26
2022-12-03T01:29:54.594Z,97.76
2022-12-03T01:32:22.561Z,98.02
2022-12-03T01:34:53.301Z,97.89
2022-12-03T01:37:23.923Z,97.75
2022-12-03T01:39:52.268Z,97.75
2022-12-03T01:42:30.263Z,97.27
2022-12-03T01:44:59.897Z,96.92
2022-12-03T01:47:31.409Z,96.69
2022-12-03T01:50:13.892Z,96.60
2022-12-03T01:52:42.533Z,96.31
2022-12-03T01:55:17.385Z,96.57
2022-12-03T01:57:48.759Z,96.87
2022-12-03T02:00:20.661Z,96.68
2022-12-03T02:02:55.120Z,96.72
2022-12-03T02:05:28.888Z,96.92
2022-12-03T02:07:57.559Z,96.95
2022-12-03T02:10:33.339Z,97.27
2022-12-03T02:13:04.929Z,97.33
2022-12-03T02:15:33.304Z,97.21
2022-12-03T02:18:01.775Z,96.83
2022-12-03T02:20:33.228Z,96.49
2022-12-03T02:23:13.266Z,96.46
2022-12-03T02:25:41.284Z,96.58
2022-12-03T02:28:10.066Z,96.75
2022-12-03T02:30:38.158Z,96.87
2022-12-03T02:33:06.224Z,96.89
2022-12-03T02:35:36.313Z,96.95
2022-12-03T02:38:11.191Z,96.96
2022-12-03T02:40:39.975Z,96.98
2022-12-03T02:43:08.067Z,96.98
2022-12-03T02:45:43.534Z,96.94
2022-12-03T02:48:23.394Z,96.93
2022-12-03T02:50:57.646Z,96.79
2022-12-03T02:53:30.875Z,96.81
2022-12-03T02:56:02.135Z,96.85
2022-12-03T02:58:32.825Z,96.63
2022-12-03T03:02:11.655Z,96.66
2022-12-03T03:04:41.330Z,96.92
2022-12-03T03:07:09.744Z,96.91
2022-12-03T03:09:37.872Z,97.00
2022-12-03T03:12:06.259Z,96.94
2022-12-03T03:14:34.635Z,96.89
2022-12-03T03:17:03.895Z,96.86
2022-12-03T03:19:33.016Z,96.83
2022-12-03T03:22:01.022Z,97.01
2022-12-03T03:24:29.062Z,97.33
2022-12-03T03:26:57.034Z,97.60
2022-12-03T03:29:25.099Z,97.62
2022-12-03T03:31:53.353Z,97.82
2022-12-03T03:34:21.449Z,98.29
2022-12-03T03:36:49.527Z,98.42
2022-12-03T03:39:17.483Z,98.26
2022-12-03T03:41:46.952Z,98.25
2022-12-03T03:44:14.982Z,98.31
2022-12-03T03:46:43.701Z,98.24
2022-12-03T03:49:12.892Z,98.31
2022-12-03T03:51:41.125Z,98.44
2022-12-03T03:54:09.502Z,98.27
2022-12-03T03:56:37.462Z,98.16
2022-12-03T03:59:05.761Z,98.20
2022-12-03T04:01:34.195Z,98.10
2022-12-03T04:04:02.498Z,97.76
2022-12-03T04:06:30.520Z,97.57
2022-12-03T04:08:58.510Z,97.96
2022-12-03T04:11:44.941Z,98.14
2022-12-03T04:14:12.856Z,97.49
2022-12-03T04:16:40.856Z,97.02
2022-12-03T04:19:08.834Z,96.88
2022-12-03T04:21:55.365Z,97.01
2022-12-03T04:24:25.230Z,97.13
2022-12-03T04:27:12.333Z,96.75
2022-12-03T04:29:40.203Z,96.43
2022-12-03T04:32:26.541Z,96.36
2022-12-03T04:35:13.269Z,95.90
2022-12-03T04:37:41.242Z,95.86
2022-12-03T04:40:29.699Z,95.97
2022-12-03T04:42:57.629Z,95.96
2022-12-03T04:45:25.544Z,95.88
2022-12-03T04:47:53.453Z,95.72
2022-12-03T04:50:21.361Z,95.72
2022-12-03T04:52:49.260Z,95.82
2022-12-03T04:55:17.118Z,95.75
2022-12-03T04:57:45.000Z,95.93
2022-12-03T05:00:13.871Z,95.92
2022-12-03T05:02:41.849Z,95.79
2022-12-03T05:05:11.257Z,95.64
2022-12-03T05:07:39.433Z,95.71
2022-12-03T05:10:07.883Z,95.85
2022-12-03T05:12:36.481Z,95.92
2022-12-03T05:15:06.020Z,95.72
2022-12-03T05:17:34.114Z,95.72
2022-12-03T05:20:20.798Z,95.81
2022-12-03T05:22:48.782Z,95.94
2022-12-03T05:25:16.684Z,96.00
2022-12-03T05:27:44.674Z,95.90
2022-12-03T05:30:12.915Z,95.88
2022-12-03T05:32:40.843Z,96.09
2022-12-03T05:35:10.340Z,96.26
2022-12-03T05:37:38.330Z,96.33
2022-12-03T05:40:07.205Z,96.30
2022-12-03T05:42:53.835Z,96.25
2022-12-03T05:45:48.765Z,96.47
2022-12-03T05:48:17.811Z,96.68
2022-12-03T05:50:46.901Z,97.06
2022-12-03T05:53:16.384Z,97.37
2022-12-03T05:55:44.380Z,97.53
2022-12-03T05:58:12.398Z,97.80
2022-12-03T06:00:42.783Z,98.08
2022-12-03T06:03:11.210Z,98.14
2022-12-03T06:05:39.424Z,98.09
2022-12-03T06:08:07.456Z,98.13
2022-12-03T06:10:35.517Z,98.24
2022-12-03T06:13:03.650Z,98.15
2022-12-03T06:15:31.741Z,98.04
2022-12-03T06:17:59.691Z,98.10
2022-12-03T06:20:27.647Z,98.22
2022-12-03T06:22:55.574Z,98.35
2022-12-03T06:25:23.470Z,98.70
2022-12-03T06:27:51.351Z,98.96
2022-12-03T06:30:19.481Z,99.10
2022-12-03T06:32:47.509Z,99.08
2022-12-03T06:35:15.538Z,98.81
2022-12-03T06:37:43.592Z,98.59
2022-12-03T06:40:12.253Z,98.34
2022-12-03T06:42:40.191Z,98.66
2022-12-03T06:45:08.699Z,98.82
2022-12-03T06:47:37.094Z,98.93
2022-12-03T06:50:07.467Z,98.75
2022-12-03T06:52:36.259Z,98.64
2022-12-03T06:55:04.527Z,98.61
2022-12-03T06:57:32.637Z,98.72
2022-12-03T07:00:00.755Z,98.65
2022-12-03T07:02:28.792Z,98.72
2022-12-03T07:04:57.023Z,98.99
2022-12-03T07:07:26.240Z,98.96
2022-12-03T07:09:54.208Z,99.26
2022-12-03T07:12:22.258Z,99.24
2022-12-03T07:14:50.286Z,99.59
2022-12-03T07:17:18.291Z,99.67
2022-12-03T07:19:46.280Z,99.91
2022-12-03T07:22:14.162Z,99.92
2022-12-03T07:24:42.877Z,99.94
2022-12-03T07:27:10.946Z,99.97
2022-12-03T07:29:39.048Z,100.00
2022-12-03T07:32:07.054Z,100.00
2022-12-03T07:34:35.006Z,100.00
2022-12-03T07:37:03.392Z,100.00
2022-12-03T07:39:31.437Z,100.00
2022-12-03T07:41:59.359Z,100.00
2022-12-03T07:44:28.276Z,100.00
2022-12-03T07:46:56.346Z,100.00
2022-12-03T07:49:24.386Z,100.00
2022-12-03T07:51:56.366Z,100.00
2022-12-03T07:54:24.787Z,100.00
2022-12-03T07:56:57.925Z,100.00
2022-12-03T07:59:29.673Z,100.00
2022-12-03T08:01:57.839Z,100.00
2022-12-03T08:04:25.884Z,100.00
2022-12-03T08:06:53.909Z,100.00
2022-12-03T08:09:22.082Z,100.00
2022-12-03T08:11:50.478Z,100.00
2022-12-03T08:14:20.899Z,100.00
2022-12-03T08:16:48.942Z,100.00
2022-12-03T08:19:18.291Z,100.00
2022-12-03T08:21:46.351Z,100.00
2022-12-03T08:24:20.045Z,100.00
2022-12-03T08:26:49.731Z,100.00
2022-12-03T08:29:19.512Z,100.00
2022-12-03T08:31:52.352Z,100.00
2022-12-03T08:34:22.880Z,100.00
2022-12-03T08:37:09.267Z,100.00
2022-12-03T08:39:45.264Z,99.83
2022-12-03T08:42:44.890Z,99.42
2022-12-03T08:45:22.041Z,99.20
2022-12-03T08:47:49.951Z,98.79
2022-12-03T08:50:33.812Z,98.34
2022-12-03T08:53:14.030Z,98.50
2022-12-03T08:55:57.630Z,98.67
2022-12-03T08:58:28.863Z,98.55
2022-12-03T09:01:14.681Z,98.70
2022-12-03T09:04:38.458Z,98.45
2022-12-03T09:07:06.489Z,98.09
2022-12-03T09:09:35.067Z,98.24
2022-12-03T09:12:04.719Z,98.37
2022-12-03T09:14:32.760Z,98.24
2022-12-03T09:17:00.823Z,98.25
2022-12-03T09:19:31.259Z,98.07
2022-12-03T09:21:59.224Z,97.67
2022-12-03T09:24:27.051Z,97.54
2022-12-03T09:26:54.985Z,97.59
2022-12-03T09:29:23.640Z,98.09
2022-12-03T09:31:51.769Z,98.42
2022-12-03T09:34:19.758Z,98.66
2022-12-03T09:36:47.753Z,98.96
2022-12-03T09:39:15.885Z,99.12
2022-12-03T09:41:44.320Z,99.26
2022-12-03T09:44:17.633Z,99.31
2022-12-03T09:46:47.674Z,99.40
2022-12-03T09:49:18.115Z,99.15
2022-12-03T09:51:46.619Z,98.97
2022-12-03T09:54:24.026Z,99.43
2022-12-03T09:56:54.113Z,99.67
2022-12-03T09:59:23.730Z,99.69
2022-12-03T10:01:53.967Z,99.66
2022-12-03T10:04:22.861Z,99.76
2022-12-03T10:06:51.630Z,99.84
2022-12-03T10:09:25.807Z,100.00
2022-12-03T10:11:56.145Z,100.00
2022-12-03T10:14:24.430Z,100.00
2022-12-03T10:16:52.530Z,100.00
2022-12-03T10:19:30.203Z,100.00
2022-12-03T10:21:59.028Z,100.00
2022-12-03T10:24:27.296Z,100.00
2022-12-03T10:26:58.861Z,100.00
2022-12-03T10:29:34.338Z,100.00
2022-12-03T10:32:08.832Z,100.00
2022-12-03T10:34:42.103Z,100.00
2022-12-03T10:37:21.565Z,100.00
2022-12-03T10:40:01.724Z,100.00
2022-12-03T10:42:33.212Z,99.95
2022-12-03T10:45:07.339Z,99.73
2022-12-03T10:47:35.537Z,99.26
2022-12-03T10:50:07.148Z,99.02
2022-12-03T10:52:35.180Z,98.70
2022-12-03T10:55:03.198Z,98.30
2022-12-03T10:57:31.123Z,98.29
2022-12-03T10:59:59.021Z,98.34
2022-12-03T11:02:27.169Z,97.99
2022-12-03T11:04:55.793Z,98.04
2022-12-03T11:07:26.351Z,97.68
2022-12-03T11:09:58.937Z,97.67
2022-12-03T11:12:29.248Z,97.42
2022-12-03T11:14:58.662Z,97.36
2022-12-03T11:17:39.829Z,97.52
2022-12-03T11:20:24.936Z,97.17
2022-12-03T11:22:56.713Z,97.33
2022-12-03T11:25:24.627Z,97.26
2022-12-03T11:28:13.913Z,97.06
2022-12-03T11:31:04.341Z,96.83
2022-12-03T11:33:37.648Z,96.51
2022-12-03T11:36:05.684Z,96.61
2022-12-03T11:38:52.295Z,96.62
2022-12-03T11:41:31.390Z,96.69
2022-12-03T11:44:20.163Z,96.72
2022-12-03T11:46:48.303Z,96.61
2022-12-03T11:49:35.884Z,96.56
2022-12-03T11:52:20.264Z,96.70
2022-12-03T11:54:56.271Z,96.77
2022-12-03T11:57:28.743Z,97.04
2022-12-03T12:00:07.236Z,97.02
2022-12-03T12:02:39.939Z,97.19
2022-12-03T12:05:18.286Z,97.38
2022-12-03T12:07:48.343Z,97.40
2022-12-03T12:10:41.349Z,97.29
2022-12-03T12:13:31.269Z,97.02
2022-12-03T12:16:05.308Z,96.97
2022-12-03T12:18:41.004Z,97.03
2022-12-03T12:21:48.266Z,97.28
2022-12-03T12:24:40.882Z,97.36
2022-12-03T12:27:17.552Z,97.24
2022-12-03T12:29:47.411Z,97.14
2022-12-03T12:32:17.863Z,97.27
2022-12-03T12:34:49.279Z,97.43
2022-12-03T12:37:23.596Z,97.47
2022-12-03T12:39:56.580Z,97.55
2022-12-03T12:42:35.294Z,97.65
2022-12-03T12:45:18.879Z,97.60
2022-12-03T12:47:50.229Z,97.59
2022-12-03T12:50:19.896Z,97.55
2022-12-03T12:53:01.866Z,97.59
2022-12-03T12:55:29.894Z,97.49
2022-12-03T12:58:06.071Z,97.52
2022-12-03T13:00:34.341Z,97.74
2022-12-03T13:03:04.874Z,97.87
2022-12-03T13:05:45.944Z,97.83
2022-12-03T13:08:26.750Z,97.90
2022-12-03T13:10:56.807Z,98.16
2022-12-03T13:13:40.154Z,98.07
2022-12-03T13:16:20.535Z,98.04
2022-12-03T13:18:59.302Z,98.07
2022-12-03T13:21:39.574Z,97.66
2022-12-03T13:24:44.411Z,97.58
2022-12-03T13:27:18.556Z,97.15
2022-12-03T13:29:50.999Z,97.15
2022-12-03T13:32:22.351Z,97.14
2022-12-03T13:34:55.414Z,97.28
2022-12-03T13:37:27.032Z,97.17
2022-12-03T13:39:57.503Z,97.02
2022-12-03T13:42:49.034Z,97.05
2022-12-03T13:45:28.956Z,97.16
2022-12-03T13:48:00.497Z,97.28
2022-12-03T13:50:44.653Z,97.35
2022-12-03T13:53:26.882Z,97.38
2022-12-03T13:56:06.253Z,97.39
2022-12-03T13:58:34.297Z,97.40
2022-12-03T14:01:02.390Z,97.38
2022-12-03T14:03:30.440Z,97.37
2022-12-03T14:05:58.838Z,97.51
2022-12-03T14:08:28.942Z,97.70
2022-12-03T14:11:00.321Z,97.88
2022-12-03T14:13:28.712Z,97.86
2022-12-03T14:15:56.726Z,97.85
2022-12-03T14:18:24.682Z,97.80
2022-12-03T14:20:52.533Z,97.83
2022-12-03T14:23:20.472Z,97.82
2022-12-03T14:25:48.358Z,97.91
2022-12-03T14:28:16.294Z,97.95
2022-12-03T14:30:44.247Z,98.10
2022-12-03T14:33:12.304Z,98.41
2022-12-03T14:35:40.196Z,98.38
2022-12-03T14:38:08.276Z,98.43
2022-12-03T14:40:36.229Z,98.76
2022-12-03T14:43:04.196Z,98.84
2022-12-03T14:45:32.201Z,98.85
2022-12-03T14:48:00.814Z,98.86
2022-12-03T14:50:28.733Z,99.14
2022-12-03T14:52:56.696Z,99.32
2022-12-03T14:55:24.740Z,99.24
2022-12-03T14:57:52.930Z,99.44
2022-12-03T15:00:23.086Z,99.60
2022-12-03T15:02:51.154Z,99.70
2022-12-03T15:05:27.932Z,99.63
2022-12-03T15:07:56.720Z,99.69
2022-12-03T15:10:24.721Z,99.55
2022-12-03T15:12:52.678Z,99.50
2022-12-03T15:15:20.612Z,99.41
2022-12-03T15:17:48.936Z,99.59
2022-12-03T15:20:19.487Z,99.80
2022-12-03T15:22:47.452Z,99.92
2022-12-03T15:25:15.484Z,100.00
2022-12-03T15:27:43.606Z,100.00
2022-12-03T15:30:11.592Z,100.00
2022-12-03T15:32:40.861Z,100.00
2022-12-03T15:35:09.110Z,100.00
2022-12-03T15:37:37.008Z,100.00
2022-12-03T15:40:05.857Z,100.00
2022-12-03T15:42:33.766Z,100.00
2022-12-03T15:45:01.878Z,100.00
2022-12-03T15:47:29.781Z,100.00
2022-12-03T15:49:57.648Z,100.00
2022-12-03T15:52:25.533Z,100.00
2022-12-03T15:54:54.468Z,100.00
2022-12-03T15:57:24.053Z,100.00
2022-12-03T18:49:55.786Z,100.00
2022-12-03T20:52:04.462Z,100.00
2022-12-03T22:54:13.334Z,100.00
